Avondale, Maryland
Current Conditions -  °F | °C
As of 12:05 PM on Wednesday 26 Nov 2014 (Local Time) from KCGS Reporting Station
Overcast Overcast  
Wind Chill: 34°   Ceiling: 600
Heat Index: 34°   Visibility: 2mi
Dew Point: 34°   Wind: 3mph
Humidity: 100%   Direction: 10°N
Pressure: 29.99"   Gusts: NA
Location:  38.9677°N, 76.9584°W
Report Text: KCGS 261705Z AUTO 01003KT 2SM OVC006 01/01 A2999 RMK AO1
Loading
Personal Weather Stations






























Interactive Weather Map New forecast layout! Learn more

10-Day Weather Forecast

Advertisements
Track Severe Weather on mobile